sensor_id;sensor_type;location;lat;lon;timestamp;temperature;humidity
59893;DHT22;45758;51.052;3.740;2022-10-22T00:00:30;16.30;99.90
59893;DHT22;45758;51.052;3.740;2022-10-22T00:02:56;16.40;99.90
59893;DHT22;45758;51.052;3.740;2022-10-22T00:05:22;16.30;99.90
59893;DHT22;45758;51.052;3.740;2022-10-22T00:07:48;16.30;99.90
59893;DHT22;45758;51.052;3.740;2022-10-22T00:10:14;16.30;99.90
59893;DHT22;45758;51.052;3.740;2022-10-22T00:12:42;16.30;99.90
59893;DHT22;45758;51.052;3.740;2022-10-22T00:15:09;16.20;99.90
59893;DHT22;45758;51.052;3.740;2022-10-22T00:17:36;16.30;99.90
59893;DHT22;45758;51.052;3.740;2022-10-22T00:20:03;16.30;99.90
59893;DHT22;45758;51.052;3.740;2022-10-22T00:22:29;16.30;99.90
59893;DHT22;45758;51.052;3.740;2022-10-22T00:24:55;16.20;99.90
59893;DHT22;45758;51.052;3.740;2022-10-22T00:27:21;16.30;99.90
59893;DHT22;45758;51.052;3.740;2022-10-22T00:29:47;16.30;99.90
59893;DHT22;45758;51.052;3.740;2022-10-22T00:32:13;16.50;99.90
59893;DHT22;45758;51.052;3.740;2022-10-22T00:34:39;16.30;99.90
59893;DHT22;45758;51.052;3.740;2022-10-22T00:37:06;16.30;99.90
59893;DHT22;45758;51.052;3.740;2022-10-22T00:39:31;16.30;99.90
59893;DHT22;45758;51.052;3.740;2022-10-22T00:41:58;16.20;99.90
59893;DHT22;45758;51.052;3.740;2022-10-22T00:48:15;16.10;99.90
59893;DHT22;45758;51.052;3.740;2022-10-22T00:50:34;16.20;99.90
59893;DHT22;45758;51.052;3.740;2022-10-22T00:53:03;16.30;99.90
59893;DHT22;45758;51.052;3.740;2022-10-22T00:55:32;16.20;99.90
59893;DHT22;45758;51.052;3.740;2022-10-22T00:57:59;16.20;99.90
59893;DHT22;45758;51.052;3.740;2022-10-22T01:00:27;16.20;99.90
59893;DHT22;45758;51.052;3.740;2022-10-22T01:02:53;16.20;99.90
59893;DHT22;45758;51.052;3.740;2022-10-22T01:05:20;16.20;99.90
59893;DHT22;45758;51.052;3.740;2022-10-22T01:07:49;16.20;99.90
59893;DHT22;45758;51.052;3.740;2022-10-22T01:15:50;16.10;99.90
59893;DHT22;45758;51.052;3.740;2022-10-22T01:18:31;16.10;99.90
59893;DHT22;45758;51.052;3.740;2022-10-22T01:29:16;16.20;99.90
59893;DHT22;45758;51.052;3.740;2022-10-22T01:32:14;16.10;99.90
59893;DHT22;45758;51.052;3.740;2022-10-22T01:34:43;16.10;99.90
59893;DHT22;45758;51.052;3.740;2022-10-22T01:37:13;16.10;99.90
59893;DHT22;45758;51.052;3.740;2022-10-22T01:39:43;16.00;99.90
59893;DHT22;45758;51.052;3.740;2022-10-22T01:42:11;16.00;99.90
59893;DHT22;45758;51.052;3.740;2022-10-22T01:44:37;15.90;99.90
59893;DHT22;45758;51.052;3.740;2022-10-22T01:50:01;15.80;99.90
59893;DHT22;45758;51.052;3.740;2022-10-22T01:58:19;15.80;99.90
59893;DHT22;45758;51.052;3.740;2022-10-22T02:00:39;15.80;99.90
59893;DHT22;45758;51.052;3.740;2022-10-22T02:03:13;15.90;99.90
59893;DHT22;45758;51.052;3.740;2022-10-22T02:05:54;15.90;99.90
59893;DHT22;45758;51.052;3.740;2022-10-22T02:08:25;15.80;99.90
59893;DHT22;45758;51.052;3.740;2022-10-22T02:10:52;15.80;99.90
59893;DHT22;45758;51.052;3.740;2022-10-22T02:13:25;15.80;99.90
59893;DHT22;45758;51.052;3.740;2022-10-22T02:15:52;15.70;99.90
59893;DHT22;45758;51.052;3.740;2022-10-22T02:18:22;15.70;99.90
59893;DHT22;45758;51.052;3.740;2022-10-22T02:20:49;15.70;99.90
59893;DHT22;45758;51.052;3.740;2022-10-22T02:23:15;15.80;99.90
59893;DHT22;45758;51.052;3.740;2022-10-22T02:25:44;15.80;99.90
59893;DHT22;45758;51.052;3.740;2022-10-22T02:28:22;15.80;99.90
59893;DHT22;45758;51.052;3.740;2022-10-22T02:30:55;15.80;99.90
59893;DHT22;45758;51.052;3.740;2022-10-22T02:33:26;15.70;99.90
59893;DHT22;45758;51.052;3.740;2022-10-22T02:35:54;15.80;99.90
59893;DHT22;45758;51.052;3.740;2022-10-22T02:38:22;15.90;99.90
59893;DHT22;45758;51.052;3.740;2022-10-22T02:40:49;15.80;99.90
59893;DHT22;45758;51.052;3.740;2022-10-22T02:43:17;15.70;99.90
59893;DHT22;45758;51.052;3.740;2022-10-22T02:45:43;15.70;99.90
59893;DHT22;45758;51.052;3.740;2022-10-22T02:48:09;15.80;99.90
59893;DHT22;45758;51.052;3.740;2022-10-22T02:50:35;15.80;99.90
59893;DHT22;45758;51.052;3.740;2022-10-22T02:53:01;15.90;99.90
59893;DHT22;45758;51.052;3.740;2022-10-22T02:55:26;15.90;99.90
59893;DHT22;45758;51.052;3.740;2022-10-22T02:57:52;16.00;99.90
59893;DHT22;45758;51.052;3.740;2022-10-22T03:00:19;16.10;99.90
59893;DHT22;45758;51.052;3.740;2022-10-22T03:02:44;16.00;99.90
59893;DHT22;45758;51.052;3.740;2022-10-22T03:05:10;16.00;99.90
59893;DHT22;45758;51.052;3.740;2022-10-22T03:07:36;16.20;99.90
59893;DHT22;45758;51.052;3.740;2022-10-22T03:10:03;16.20;99.90
59893;DHT22;45758;51.052;3.740;2022-10-22T03:12:28;16.10;99.90
59893;DHT22;45758;51.052;3.740;2022-10-22T03:14:54;16.10;99.90
59893;DHT22;45758;51.052;3.740;2022-10-22T03:17:20;16.10;99.90
59893;DHT22;45758;51.052;3.740;2022-10-22T03:19:46;16.10;99.90
59893;DHT22;45758;51.052;3.740;2022-10-22T03:22:31;16.10;99.90
59893;DHT22;45758;51.052;3.740;2022-10-22T03:25:03;16.20;99.90
59893;DHT22;45758;51.052;3.740;2022-10-22T03:27:33;16.30;99.90
59893;DHT22;45758;51.052;3.740;2022-10-22T03:29:59;16.30;99.90
59893;DHT22;45758;51.052;3.740;2022-10-22T03:32:27;16.30;99.90
59893;DHT22;45758;51.052;3.740;2022-10-22T03:34:53;16.30;99.90
59893;DHT22;45758;51.052;3.740;2022-10-22T03:37:19;16.30;99.90
59893;DHT22;45758;51.052;3.740;2022-10-22T03:39:45;16.40;99.90
59893;DHT22;45758;51.052;3.740;2022-10-22T03:42:11;16.40;99.90
59893;DHT22;45758;51.052;3.740;2022-10-22T03:44:38;16.40;99.90
59893;DHT22;45758;51.052;3.740;2022-10-22T03:47:05;16.40;99.90
59893;DHT22;45758;51.052;3.740;2022-10-22T03:49:31;16.40;99.90
59893;DHT22;45758;51.052;3.740;2022-10-22T03:52:04;16.40;99.90
59893;DHT22;45758;51.052;3.740;2022-10-22T03:54:29;16.30;99.90
59893;DHT22;45758;51.052;3.740;2022-10-22T03:56:55;16.20;99.90
59893;DHT22;45758;51.052;3.740;2022-10-22T03:59:21;16.20;99.90
59893;DHT22;45758;51.052;3.740;2022-10-22T04:01:47;16.20;99.90
59893;DHT22;45758;51.052;3.740;2022-10-22T04:04:13;16.20;99.90
59893;DHT22;45758;51.052;3.740;2022-10-22T04:06:39;16.10;99.90
59893;DHT22;45758;51.052;3.740;2022-10-22T04:09:04;16.10;99.90
59893;DHT22;45758;51.052;3.740;2022-10-22T04:11:30;16.10;99.90
59893;DHT22;45758;51.052;3.740;2022-10-22T04:13:56;16.10;99.90
59893;DHT22;45758;51.052;3.740;2022-10-22T04:16:22;16.00;99.90
59893;DHT22;45758;51.052;3.740;2022-10-22T04:18:49;16.00;99.90
59893;DHT22;45758;51.052;3.740;2022-10-22T04:21:17;15.90;99.90
59893;DHT22;45758;51.052;3.740;2022-10-22T04:23:48;15.90;99.90
59893;DHT22;45758;51.052;3.740;2022-10-22T04:26:15;15.80;99.90
59893;DHT22;45758;51.052;3.740;2022-10-22T04:28:41;15.80;99.90
59893;DHT22;45758;51.052;3.740;2022-10-22T04:31:15;15.80;99.90
59893;DHT22;45758;51.052;3.740;2022-10-22T04:33:41;15.80;99.90
59893;DHT22;45758;51.052;3.740;2022-10-22T04:36:16;15.70;99.90
59893;DHT22;45758;51.052;3.740;2022-10-22T04:38:44;15.50;99.90
59893;DHT22;45758;51.052;3.740;2022-10-22T04:41:12;15.50;99.90
59893;DHT22;45758;51.052;3.740;2022-10-22T04:43:39;15.60;99.90
59893;DHT22;45758;51.052;3.740;2022-10-22T04:46:05;15.60;99.90
59893;DHT22;45758;51.052;3.740;2022-10-22T04:48:38;15.60;99.90
59893;DHT22;45758;51.052;3.740;2022-10-22T04:51:05;15.60;99.90
59893;DHT22;45758;51.052;3.740;2022-10-22T04:53:32;15.50;99.90
59893;DHT22;45758;51.052;3.740;2022-10-22T04:58:34;15.40;99.90
59893;DHT22;45758;51.052;3.740;2022-10-22T05:00:59;15.30;99.90
59893;DHT22;45758;51.052;3.740;2022-10-22T05:03:25;15.40;99.90
59893;DHT22;45758;51.052;3.740;2022-10-22T05:05:51;15.40;99.90
59893;DHT22;45758;51.052;3.740;2022-10-22T05:08:17;15.40;99.90
59893;DHT22;45758;51.052;3.740;2022-10-22T05:10:43;15.40;99.90
59893;DHT22;45758;51.052;3.740;2022-10-22T05:13:09;15.30;99.90
59893;DHT22;45758;51.052;3.740;2022-10-22T05:15:34;15.30;99.90
59893;DHT22;45758;51.052;3.740;2022-10-22T05:18:01;15.30;99.90
59893;DHT22;45758;51.052;3.740;2022-10-22T05:20:27;15.40;99.90
59893;DHT22;45758;51.052;3.740;2022-10-22T05:22:53;15.30;99.90
59893;DHT22;45758;51.052;3.740;2022-10-22T05:25:19;15.30;99.90
59893;DHT22;45758;51.052;3.740;2022-10-22T05:27:48;15.30;99.90
59893;DHT22;45758;51.052;3.740;2022-10-22T05:30:15;15.40;99.90
59893;DHT22;45758;51.052;3.740;2022-10-22T05:32:41;15.50;99.90
59893;DHT22;45758;51.052;3.740;2022-10-22T05:35:07;15.50;99.90
59893;DHT22;45758;51.052;3.740;2022-10-22T05:37:32;15.60;99.90
59893;DHT22;45758;51.052;3.740;2022-10-22T05:39:58;15.60;99.90
59893;DHT22;45758;51.052;3.740;2022-10-22T05:42:24;15.70;99.90
59893;DHT22;45758;51.052;3.740;2022-10-22T05:44:50;15.70;99.90
59893;DHT22;45758;51.052;3.740;2022-10-22T05:47:16;15.70;99.90
59893;DHT22;45758;51.052;3.740;2022-10-22T05:49:41;15.80;99.90
59893;DHT22;45758;51.052;3.740;2022-10-22T05:52:07;15.80;99.90
59893;DHT22;45758;51.052;3.740;2022-10-22T05:54:33;15.80;99.90
59893;DHT22;45758;51.052;3.740;2022-10-22T05:56:59;15.80;99.90
59893;DHT22;45758;51.052;3.740;2022-10-22T05:59:25;15.80;99.90
59893;DHT22;45758;51.052;3.740;2022-10-22T06:01:51;15.90;99.90
59893;DHT22;45758;51.052;3.740;2022-10-22T06:04:17;16.00;99.90
59893;DHT22;45758;51.052;3.740;2022-10-22T06:06:51;16.00;99.90
59893;DHT22;45758;51.052;3.740;2022-10-22T06:09:33;16.00;99.90
59893;DHT22;45758;51.052;3.740;2022-10-22T06:12:00;16.10;99.90
59893;DHT22;45758;51.052;3.740;2022-10-22T06:14:26;16.20;99.90
59893;DHT22;45758;51.052;3.740;2022-10-22T06:16:53;16.10;99.90
59893;DHT22;45758;51.052;3.740;2022-10-22T06:19:20;16.10;99.90
59893;DHT22;45758;51.052;3.740;2022-10-22T06:21:47;16.20;99.90
59893;DHT22;45758;51.052;3.740;2022-10-22T06:24:13;16.30;99.90
59893;DHT22;45758;51.052;3.740;2022-10-22T06:26:39;16.20;99.90
59893;DHT22;45758;51.052;3.740;2022-10-22T06:29:06;16.20;99.90
59893;DHT22;45758;51.052;3.740;2022-10-22T06:31:33;16.20;99.90
59893;DHT22;45758;51.052;3.740;2022-10-22T06:34:03;16.20;99.90
59893;DHT22;45758;51.052;3.740;2022-10-22T06:36:29;16.20;99.90
59893;DHT22;45758;51.052;3.740;2022-10-22T06:38:55;16.20;99.90
59893;DHT22;45758;51.052;3.740;2022-10-22T06:41:21;16.20;99.90
59893;DHT22;45758;51.052;3.740;2022-10-22T06:43:49;16.30;99.90
59893;DHT22;45758;51.052;3.740;2022-10-22T06:46:17;16.30;99.90
59893;DHT22;45758;51.052;3.740;2022-10-22T06:48:49;16.40;99.90
59893;DHT22;45758;51.052;3.740;2022-10-22T06:51:15;16.30;99.90
59893;DHT22;45758;51.052;3.740;2022-10-22T06:53:41;16.20;99.90
59893;DHT22;45758;51.052;3.740;2022-10-22T06:56:12;16.20;99.90
59893;DHT22;45758;51.052;3.740;2022-10-22T06:58:38;16.20;99.90
59893;DHT22;45758;51.052;3.740;2022-10-22T07:01:07;16.20;99.90
59893;DHT22;45758;51.052;3.740;2022-10-22T07:03:33;16.20;99.90
59893;DHT22;45758;51.052;3.740;2022-10-22T07:06:04;16.30;99.90
59893;DHT22;45758;51.052;3.740;2022-10-22T07:08:32;16.40;99.90
59893;DHT22;45758;51.052;3.740;2022-10-22T07:11:19;16.30;99.90
59893;DHT22;45758;51.052;3.740;2022-10-22T07:13:45;16.30;99.90
59893;DHT22;45758;51.052;3.740;2022-10-22T07:16:12;16.20;99.90
59893;DHT22;45758;51.052;3.740;2022-10-22T07:18:39;16.20;99.90
59893;DHT22;45758;51.052;3.740;2022-10-22T07:21:09;16.30;99.90
59893;DHT22;45758;51.052;3.740;2022-10-22T07:23:36;16.20;99.90
59893;DHT22;45758;51.052;3.740;2022-10-22T07:26:04;16.20;99.90
59893;DHT22;45758;51.052;3.740;2022-10-22T07:28:33;16.30;99.90
59893;DHT22;45758;51.052;3.740;2022-10-22T07:30:59;16.30;99.90
59893;DHT22;45758;51.052;3.740;2022-10-22T07:33:26;16.30;99.90
59893;DHT22;45758;51.052;3.740;2022-10-22T07:36:01;16.30;99.90
59893;DHT22;45758;51.052;3.740;2022-10-22T07:38:27;16.50;99.90
59893;DHT22;45758;51.052;3.740;2022-10-22T07:40:54;16.60;99.90
59893;DHT22;45758;51.052;3.740;2022-10-22T07:43:20;16.60;99.90
59893;DHT22;45758;51.052;3.740;2022-10-22T07:45:46;16.60;99.90
59893;DHT22;45758;51.052;3.740;2022-10-22T07:48:13;16.80;99.90
59893;DHT22;45758;51.052;3.740;2022-10-22T07:50:38;16.80;99.90
59893;DHT22;45758;51.052;3.740;2022-10-22T07:53:04;16.80;99.90
59893;DHT22;45758;51.052;3.740;2022-10-22T07:55:30;16.80;99.90
59893;DHT22;45758;51.052;3.740;2022-10-22T07:57:56;16.90;99.90
59893;DHT22;45758;51.052;3.740;2022-10-22T08:00:22;16.80;99.90
59893;DHT22;45758;51.052;3.740;2022-10-22T08:02:48;16.80;99.90
59893;DHT22;45758;51.052;3.740;2022-10-22T08:05:14;16.90;99.90
59893;DHT22;45758;51.052;3.740;2022-10-22T08:07:41;17.00;99.90
59893;DHT22;45758;51.052;3.740;2022-10-22T08:10:08;17.10;99.90
59893;DHT22;45758;51.052;3.740;2022-10-22T08:12:34;17.10;99.90
59893;DHT22;45758;51.052;3.740;2022-10-22T08:15:00;17.20;99.90
59893;DHT22;45758;51.052;3.740;2022-10-22T08:17:27;17.30;99.90
59893;DHT22;45758;51.052;3.740;2022-10-22T08:19:53;17.40;99.90
59893;DHT22;45758;51.052;3.740;2022-10-22T08:22:20;17.30;99.90
59893;DHT22;45758;51.052;3.740;2022-10-22T08:24:54;17.30;99.90
59893;DHT22;45758;51.052;3.740;2022-10-22T08:27:31;17.30;99.90
59893;DHT22;45758;51.052;3.740;2022-10-22T08:30:00;17.40;99.90
59893;DHT22;45758;51.052;3.740;2022-10-22T08:32:26;17.30;99.90
59893;DHT22;45758;51.052;3.740;2022-10-22T08:34:54;17.50;99.90
59893;DHT22;45758;51.052;3.740;2022-10-22T08:37:20;17.50;99.90
59893;DHT22;45758;51.052;3.740;2022-10-22T08:39:46;17.70;99.90
59893;DHT22;45758;51.052;3.740;2022-10-22T08:42:24;18.00;99.90
59893;DHT22;45758;51.052;3.740;2022-10-22T08:45:17;18.00;99.90
59893;DHT22;45758;51.052;3.740;2022-10-22T08:47:54;18.10;99.90
59893;DHT22;45758;51.052;3.740;2022-10-22T08:50:35;18.30;99.90
59893;DHT22;45758;51.052;3.740;2022-10-22T08:53:05;18.40;99.90
59893;DHT22;45758;51.052;3.740;2022-10-22T08:55:33;18.50;99.90
59893;DHT22;45758;51.052;3.740;2022-10-22T09:00:46;18.70;99.90
59893;DHT22;45758;51.052;3.740;2022-10-22T09:06:14;19.10;99.90
59893;DHT22;45758;51.052;3.740;2022-10-22T09:08:42;19.10;99.90
59893;DHT22;45758;51.052;3.740;2022-10-22T09:11:19;19.10;99.90
59893;DHT22;45758;51.052;3.740;2022-10-22T09:13:47;19.10;99.90
59893;DHT22;45758;51.052;3.740;2022-10-22T09:24:12;18.90;99.90
59893;DHT22;45758;51.052;3.740;2022-10-22T09:26:41;19.10;99.90
59893;DHT22;45758;51.052;3.740;2022-10-22T09:29:16;19.10;99.90
59893;DHT22;45758;51.052;3.740;2022-10-22T09:31:42;19.20;99.90
59893;DHT22;45758;51.052;3.740;2022-10-22T09:34:08;19.20;99.90
59893;DHT22;45758;51.052;3.740;2022-10-22T09:36:34;19.40;99.90
59893;DHT22;45758;51.052;3.740;2022-10-22T09:39:24;19.60;99.90
59893;DHT22;45758;51.052;3.740;2022-10-22T09:41:56;19.80;99.90
59893;DHT22;45758;51.052;3.740;2022-10-22T09:44:22;20.00;99.90
59893;DHT22;45758;51.052;3.740;2022-10-22T09:46:48;20.10;99.90
59893;DHT22;45758;51.052;3.740;2022-10-22T09:49:16;20.10;99.90
59893;DHT22;45758;51.052;3.740;2022-10-22T09:52:21;20.30;99.90
59893;DHT22;45758;51.052;3.740;2022-10-22T09:54:53;20.20;99.90
59893;DHT22;45758;51.052;3.740;2022-10-22T09:57:24;20.10;99.90
59893;DHT22;45758;51.052;3.740;2022-10-22T10:00:06;20.20;99.90
59893;DHT22;45758;51.052;3.740;2022-10-22T10:02:44;20.20;99.90
59893;DHT22;45758;51.052;3.740;2022-10-22T10:05:24;20.30;99.90
59893;DHT22;45758;51.052;3.740;2022-10-22T10:08:06;20.50;99.90
59893;DHT22;45758;51.052;3.740;2022-10-22T10:11:02;20.60;99.90
59893;DHT22;45758;51.052;3.740;2022-10-22T10:16:31;20.90;99.90
59893;DHT22;45758;51.052;3.740;2022-10-22T10:24:41;20.90;99.90
59893;DHT22;45758;51.052;3.740;2022-10-22T10:30:14;20.90;99.90
59893;DHT22;45758;51.052;3.740;2022-10-22T10:33:02;20.80;99.90
59893;DHT22;45758;51.052;3.740;2022-10-22T10:35:57;21.00;99.90
59893;DHT22;45758;51.052;3.740;2022-10-22T10:49:32;20.70;99.90
59893;DHT22;45758;51.052;3.740;2022-10-22T10:52:09;20.70;99.90
59893;DHT22;45758;51.052;3.740;2022-10-22T11:00:19;20.90;99.90
59893;DHT22;45758;51.052;3.740;2022-10-22T11:03:01;20.80;99.90
59893;DHT22;45758;51.052;3.740;2022-10-22T11:05:45;20.70;99.90
59893;DHT22;45758;51.052;3.740;2022-10-22T11:13:57;20.70;99.90
59893;DHT22;45758;51.052;3.740;2022-10-22T11:19:02;20.70;99.90
59893;DHT22;45758;51.052;3.740;2022-10-22T11:22:24;20.90;99.90
59893;DHT22;45758;51.052;3.740;2022-10-22T11:24:44;21.10;99.90
59893;DHT22;45758;51.052;3.740;2022-10-22T11:30:12;21.50;99.90
59893;DHT22;45758;51.052;3.740;2022-10-22T11:32:40;21.60;99.90
59893;DHT22;45758;51.052;3.740;2022-10-22T11:35:13;21.50;99.90
59893;DHT22;45758;51.052;3.740;2022-10-22T11:37:42;21.50;99.90
59893;DHT22;45758;51.052;3.740;2022-10-22T11:40:17;21.70;99.90
59893;DHT22;45758;51.052;3.740;2022-10-22T11:46:03;21.70;99.90
59893;DHT22;45758;51.052;3.740;2022-10-22T11:48:37;21.50;99.90
59893;DHT22;45758;51.052;3.740;2022-10-22T11:51:03;21.40;99.90
59893;DHT22;45758;51.052;3.740;2022-10-22T11:53:32;21.20;99.90
59893;DHT22;45758;51.052;3.740;2022-10-22T12:16:47;20.30;99.90
59893;DHT22;45758;51.052;3.740;2022-10-22T12:19:23;20.20;99.90
59893;DHT22;45758;51.052;3.740;2022-10-22T12:22:11;20.10;99.90
59893;DHT22;45758;51.052;3.740;2022-10-22T12:24:41;20.10;99.90
59893;DHT22;45758;51.052;3.740;2022-10-22T12:27:25;20.00;99.90
59893;DHT22;45758;51.052;3.740;2022-10-22T12:29:57;20.00;99.90
59893;DHT22;45758;51.052;3.740;2022-10-22T12:32:35;19.90;99.90
59893;DHT22;45758;51.052;3.740;2022-10-22T12:35:06;20.00;99.90
59893;DHT22;45758;51.052;3.740;2022-10-22T12:37:35;20.30;99.90
59893;DHT22;45758;51.052;3.740;2022-10-22T12:42:48;20.60;99.90
59893;DHT22;45758;51.052;3.740;2022-10-22T12:45:14;20.80;99.90
59893;DHT22;45758;51.052;3.740;2022-10-22T12:47:47;20.90;99.90
59893;DHT22;45758;51.052;3.740;2022-10-22T12:50:20;21.00;99.90
59893;DHT22;45758;51.052;3.740;2022-10-22T12:52:48;21.00;99.90
59893;DHT22;45758;51.052;3.740;2022-10-22T12:55:16;21.20;99.90
59893;DHT22;45758;51.052;3.740;2022-10-22T12:57:46;21.20;99.90
59893;DHT22;45758;51.052;3.740;2022-10-22T13:00:28;21.30;99.90
59893;DHT22;45758;51.052;3.740;2022-10-22T13:03:02;21.10;99.90
59893;DHT22;45758;51.052;3.740;2022-10-22T13:05:33;21.20;99.90
59893;DHT22;45758;51.052;3.740;2022-10-22T13:08:10;21.30;99.90
59893;DHT22;45758;51.052;3.740;2022-10-22T13:10:40;21.40;99.90
59893;DHT22;45758;51.052;3.740;2022-10-22T13:13:27;21.40;99.90
59893;DHT22;45758;51.052;3.740;2022-10-22T13:15:52;21.50;99.90
59893;DHT22;45758;51.052;3.740;2022-10-22T13:18:21;21.60;99.90
59893;DHT22;45758;51.052;3.740;2022-10-22T13:20:53;21.70;99.90
59893;DHT22;45758;51.052;3.740;2022-10-22T13:23:21;21.60;99.90
59893;DHT22;45758;51.052;3.740;2022-10-22T13:26:11;21.70;99.90
59893;DHT22;45758;51.052;3.740;2022-10-22T13:28:38;21.80;99.90
59893;DHT22;45758;51.052;3.740;2022-10-22T13:31:18;21.80;99.90
59893;DHT22;45758;51.052;3.740;2022-10-22T13:33:52;21.70;99.90
59893;DHT22;45758;51.052;3.740;2022-10-22T13:36:19;21.60;99.90
59893;DHT22;45758;51.052;3.740;2022-10-22T13:38:45;21.60;99.90
59893;DHT22;45758;51.052;3.740;2022-10-22T13:41:30;21.30;99.90
59893;DHT22;45758;51.052;3.740;2022-10-22T13:43:57;21.20;99.90
59893;DHT22;45758;51.052;3.740;2022-10-22T13:46:24;21.20;99.90
59893;DHT22;45758;51.052;3.740;2022-10-22T13:48:53;21.40;99.90
59893;DHT22;45758;51.052;3.740;2022-10-22T13:51:27;21.60;99.90
59893;DHT22;45758;51.052;3.740;2022-10-22T13:54:00;21.80;99.90
59893;DHT22;45758;51.052;3.740;2022-10-22T13:56:26;21.70;99.90
59893;DHT22;45758;51.052;3.740;2022-10-22T13:58:52;21.70;99.90
59893;DHT22;45758;51.052;3.740;2022-10-22T14:01:24;21.60;99.90
59893;DHT22;45758;51.052;3.740;2022-10-22T14:03:53;21.40;99.90
59893;DHT22;45758;51.052;3.740;2022-10-22T14:06:21;21.40;99.90
59893;DHT22;45758;51.052;3.740;2022-10-22T14:08:52;21.20;99.90
59893;DHT22;45758;51.052;3.740;2022-10-22T14:11:20;21.00;99.90
59893;DHT22;45758;51.052;3.740;2022-10-22T14:13:46;20.90;99.90
59893;DHT22;45758;51.052;3.740;2022-10-22T14:16:19;20.90;99.90
59893;DHT22;45758;51.052;3.740;2022-10-22T14:18:47;20.80;99.90
59893;DHT22;45758;51.052;3.740;2022-10-22T14:21:14;21.00;99.90
59893;DHT22;45758;51.052;3.740;2022-10-22T14:23:40;21.10;99.90
59893;DHT22;45758;51.052;3.740;2022-10-22T14:26:08;21.10;99.90
59893;DHT22;45758;51.052;3.740;2022-10-22T14:28:35;21.20;99.90
59893;DHT22;45758;51.052;3.740;2022-10-22T14:31:01;21.10;99.90
59893;DHT22;45758;51.052;3.740;2022-10-22T14:33:31;21.20;99.90
59893;DHT22;45758;51.052;3.740;2022-10-22T14:35:58;21.10;99.90
59893;DHT22;45758;51.052;3.740;2022-10-22T14:38:25;21.00;99.90
59893;DHT22;45758;51.052;3.740;2022-10-22T14:40:50;20.90;99.90
59893;DHT22;45758;51.052;3.740;2022-10-22T14:43:27;20.90;99.90
59893;DHT22;45758;51.052;3.740;2022-10-22T14:45:54;21.10;99.90
59893;DHT22;45758;51.052;3.740;2022-10-22T14:48:20;21.00;99.90
59893;DHT22;45758;51.052;3.740;2022-10-22T14:50:47;20.80;99.90
59893;DHT22;45758;51.052;3.740;2022-10-22T14:53:13;20.70;99.90
59893;DHT22;45758;51.052;3.740;2022-10-22T14:55:45;20.60;99.90
59893;DHT22;45758;51.052;3.740;2022-10-22T14:58:12;20.50;99.90
59893;DHT22;45758;51.052;3.740;2022-10-22T15:00:40;20.50;99.90
59893;DHT22;45758;51.052;3.740;2022-10-22T15:03:05;20.50;99.90
59893;DHT22;45758;51.052;3.740;2022-10-22T15:05:31;20.60;99.90
59893;DHT22;45758;51.052;3.740;2022-10-22T15:07:57;20.50;99.90
59893;DHT22;45758;51.052;3.740;2022-10-22T15:10:24;20.30;99.90
59893;DHT22;45758;51.052;3.740;2022-10-22T15:12:52;20.30;99.90
59893;DHT22;45758;51.052;3.740;2022-10-22T15:15:17;20.30;99.90
59893;DHT22;45758;51.052;3.740;2022-10-22T15:17:44;20.30;99.90
59893;DHT22;45758;51.052;3.740;2022-10-22T15:20:09;20.20;99.90
59893;DHT22;45758;51.052;3.740;2022-10-22T15:22:35;20.10;99.90
59893;DHT22;45758;51.052;3.740;2022-10-22T15:25:04;20.10;99.90
59893;DHT22;45758;51.052;3.740;2022-10-22T15:27:31;20.00;99.90
59893;DHT22;45758;51.052;3.740;2022-10-22T15:29:56;19.90;99.90
59893;DHT22;45758;51.052;3.740;2022-10-22T15:32:25;19.80;99.90
59893;DHT22;45758;51.052;3.740;2022-10-22T15:34:52;19.90;99.90
59893;DHT22;45758;51.052;3.740;2022-10-22T15:37:20;19.90;99.90
59893;DHT22;45758;51.052;3.740;2022-10-22T15:39:46;20.00;99.90
59893;DHT22;45758;51.052;3.740;2022-10-22T15:42:15;19.90;99.90
59893;DHT22;45758;51.052;3.740;2022-10-22T15:44:43;19.80;99.90
59893;DHT22;45758;51.052;3.740;2022-10-22T15:47:12;19.90;99.90
59893;DHT22;45758;51.052;3.740;2022-10-22T15:49:38;19.80;99.90
59893;DHT22;45758;51.052;3.740;2022-10-22T15:52:06;19.70;99.90
59893;DHT22;45758;51.052;3.740;2022-10-22T15:54:33;19.70;99.90
59893;DHT22;45758;51.052;3.740;2022-10-22T15:56:59;19.70;99.90
59893;DHT22;45758;51.052;3.740;2022-10-22T15:59:30;19.60;99.90
59893;DHT22;45758;51.052;3.740;2022-10-22T16:01:57;19.60;99.90
59893;DHT22;45758;51.052;3.740;2022-10-22T16:04:23;19.60;99.90
59893;DHT22;45758;51.052;3.740;2022-10-22T16:06:51;19.40;99.90
59893;DHT22;45758;51.052;3.740;2022-10-22T16:09:20;19.30;99.90
59893;DHT22;45758;51.052;3.740;2022-10-22T16:11:46;19.20;99.90
59893;DHT22;45758;51.052;3.740;2022-10-22T16:14:14;19.20;99.90
59893;DHT22;45758;51.052;3.740;2022-10-22T16:16:49;19.10;99.90
59893;DHT22;45758;51.052;3.740;2022-10-22T16:19:16;19.20;99.90
59893;DHT22;45758;51.052;3.740;2022-10-22T16:21:43;19.10;99.90
59893;DHT22;45758;51.052;3.740;2022-10-22T16:24:10;19.00;99.90
59893;DHT22;45758;51.052;3.740;2022-10-22T16:26:36;18.90;99.90
59893;DHT22;45758;51.052;3.740;2022-10-22T16:29:03;18.70;99.90
59893;DHT22;45758;51.052;3.740;2022-10-22T16:31:28;18.60;99.90
59893;DHT22;45758;51.052;3.740;2022-10-22T16:33:54;18.60;99.90
59893;DHT22;45758;51.052;3.740;2022-10-22T16:36:21;18.50;99.90
59893;DHT22;45758;51.052;3.740;2022-10-22T16:38:47;18.40;99.90
59893;DHT22;45758;51.052;3.740;2022-10-22T16:41:18;18.30;99.90
59893;DHT22;45758;51.052;3.740;2022-10-22T16:43:48;18.30;99.90
59893;DHT22;45758;51.052;3.740;2022-10-22T16:46:16;18.20;99.90
59893;DHT22;45758;51.052;3.740;2022-10-22T16:48:48;18.20;99.90
59893;DHT22;45758;51.052;3.740;2022-10-22T16:51:17;18.10;99.90
59893;DHT22;45758;51.052;3.740;2022-10-22T16:53:43;18.10;99.90
59893;DHT22;45758;51.052;3.740;2022-10-22T16:56:10;18.00;99.90
59893;DHT22;45758;51.052;3.740;2022-10-22T16:58:37;17.90;99.90
59893;DHT22;45758;51.052;3.740;2022-10-22T17:01:07;17.90;99.90
59893;DHT22;45758;51.052;3.740;2022-10-22T17:03:34;17.80;99.90
59893;DHT22;45758;51.052;3.740;2022-10-22T17:06:00;17.70;99.90
59893;DHT22;45758;51.052;3.740;2022-10-22T17:08:28;17.60;99.90
59893;DHT22;45758;51.052;3.740;2022-10-22T17:10:54;17.60;99.90
59893;DHT22;45758;51.052;3.740;2022-10-22T17:13:20;17.50;99.90
59893;DHT22;45758;51.052;3.740;2022-10-22T17:15:49;17.40;99.90
59893;DHT22;45758;51.052;3.740;2022-10-22T17:18:14;17.40;99.90
59893;DHT22;45758;51.052;3.740;2022-10-22T17:20:41;17.40;99.90
59893;DHT22;45758;51.052;3.740;2022-10-22T17:23:08;17.30;99.90
59893;DHT22;45758;51.052;3.740;2022-10-22T17:25:42;17.30;99.90
59893;DHT22;45758;51.052;3.740;2022-10-22T17:28:09;17.30;99.90
59893;DHT22;45758;51.052;3.740;2022-10-22T17:30:36;17.20;99.90